createdAt,value
2018-04-18T00:00:47.481Z,18.33
2018-04-18T00:03:13.404Z,17.60
2018-04-18T00:05:39.305Z,22.10
2018-04-18T00:08:05.377Z,14.70
2018-04-18T00:10:31.368Z,19.63
2018-04-18T00:12:57.260Z,19.93
2018-04-18T00:15:23.248Z,14.87
2018-04-18T00:17:49.132Z,18.70
2018-04-18T00:20:14.991Z,18.97
2018-04-18T00:22:41.356Z,19.50
2018-04-18T00:25:07.211Z,17.60
2018-04-18T00:27:33.127Z,19.37
2018-04-18T00:29:59.066Z,17.63
2018-04-18T00:32:24.948Z,21.03
2018-04-18T00:34:50.929Z,18.80
2018-04-18T00:37:17.092Z,21.07
2018-04-18T00:39:42.968Z,22.93
2018-04-18T00:42:08.861Z,19.10
2018-04-18T00:44:34.802Z,18.47
2018-04-18T00:47:00.772Z,20.20
2018-04-18T00:49:26.650Z,19.40
2018-04-18T00:51:52.602Z,18.33
2018-04-18T00:54:18.451Z,19.13
2018-04-18T00:56:44.312Z,27.83
2018-04-18T00:59:10.308Z,15.13
2018-04-18T01:01:36.175Z,20.20
2018-04-18T01:04:02.135Z,18.60
2018-04-18T01:06:28.203Z,21.43
2018-04-18T01:08:54.071Z,22.63
2018-04-18T01:11:20.031Z,17.50
2018-04-18T01:13:45.947Z,29.70
2018-04-18T01:16:11.939Z,24.97
2018-04-18T01:18:37.807Z,22.63
2018-04-18T01:21:03.736Z,23.07
2018-04-18T01:23:29.706Z,18.67
2018-04-18T01:25:55.570Z,21.57
2018-04-18T01:28:21.848Z,18.10
2018-04-18T01:30:47.718Z,20.83
2018-04-18T01:33:13.599Z,19.53
2018-04-18T01:35:39.598Z,23.23
2018-04-18T01:38:05.456Z,21.03
2018-04-18T01:40:31.407Z,20.80
2018-04-18T01:42:57.356Z,26.87
2018-04-18T01:45:23.240Z,29.60
2018-04-18T01:47:49.222Z,28.27
2018-04-18T01:50:15.158Z,27.70
2018-04-18T01:52:41.118Z,24.27
2018-04-18T01:55:06.999Z,25.97
2018-04-18T01:57:32.910Z,23.30
2018-04-18T01:59:58.888Z,24.37
2018-04-18T02:02:24.763Z,30.13
2018-04-18T02:04:50.720Z,24.50
2018-04-18T02:07:16.579Z,30.57
2018-04-18T02:09:42.427Z,26.60
2018-04-18T02:12:08.435Z,25.07
2018-04-18T02:14:34.308Z,27.13
2018-04-18T02:17:00.228Z,22.00
2018-04-18T02:19:26.140Z,23.57
2018-04-18T02:21:52.026Z,23.53
2018-04-18T02:24:17.967Z,27.97
2018-04-18T02:26:43.876Z,25.43
2018-04-18T02:29:09.812Z,27.90
2018-04-18T02:31:35.688Z,25.83
2018-04-18T02:34:01.624Z,26.83
2018-04-18T02:36:28.393Z,30.17
2018-04-18T02:38:54.272Z,24.00
2018-04-18T02:41:20.273Z,24.83
2018-04-18T02:43:46.149Z,25.83
2018-04-18T02:46:12.031Z,27.67
2018-04-18T02:48:38.059Z,29.37
2018-04-18T02:51:03.935Z,28.53
2018-04-18T02:53:29.857Z,26.17
2018-04-18T02:55:55.800Z,26.23
2018-04-18T02:58:21.665Z,24.13
2018-04-18T03:00:47.618Z,28.03
2018-04-18T03:03:13.563Z,27.83
2018-04-18T03:05:39.491Z,29.17
2018-04-18T03:08:05.364Z,27.33
2018-04-18T03:10:31.333Z,24.57
2018-04-18T03:12:57.369Z,31.20
2018-04-18T03:15:23.224Z,26.07
2018-04-18T03:17:49.179Z,28.47
2018-04-18T03:20:15.071Z,26.97
2018-04-18T03:22:40.943Z,29.80
2018-04-18T03:25:06.936Z,30.23
2018-04-18T03:27:32.808Z,27.57
2018-04-18T03:29:58.738Z,30.37
2018-04-18T03:32:24.660Z,30.17
2018-04-18T03:34:50.540Z,28.20
2018-04-18T03:37:16.492Z,29.47
2018-04-18T03:39:42.708Z,29.27
2018-04-18T03:42:08.631Z,29.10
2018-04-18T03:44:34.507Z,29.60
2018-04-18T03:47:00.472Z,36.80
2018-04-18T03:49:26.437Z,37.80
2018-04-18T03:51:52.309Z,40.30
2018-04-18T03:54:18.277Z,36.83
2018-04-18T03:56:44.148Z,37.43
2018-04-18T03:59:10.012Z,37.67
2018-04-18T04:01:36.034Z,30.23
2018-04-18T04:04:01.893Z,30.80
2018-04-18T04:06:27.835Z,27.77
2018-04-18T04:08:53.760Z,31.53
2018-04-18T04:11:19.636Z,27.20
2018-04-18T04:13:45.612Z,31.93
2018-04-18T04:16:24.021Z,26.17
2018-04-18T04:19:02.356Z,30.93
2018-04-18T04:21:40.744Z,31.37
2018-04-18T04:24:19.731Z,30.97
2018-04-18T04:26:45.676Z,30.33
2018-04-18T04:29:11.594Z,25.97
2018-04-18T04:31:37.516Z,33.27
2018-04-18T04:34:03.407Z,34.97
2018-04-18T04:36:29.397Z,42.37
2018-04-18T04:38:55.271Z,45.83
2018-04-18T04:41:21.236Z,42.50
2018-04-18T04:43:47.146Z,41.13
2018-04-18T04:46:13.019Z,36.33
2018-04-18T04:48:39.037Z,42.30
2018-04-18T04:51:04.923Z,41.27
2018-04-18T04:53:30.852Z,41.30
2018-04-18T04:55:56.791Z,43.93
2018-04-18T04:58:22.743Z,48.30
2018-04-18T05:00:49.638Z,41.93
2018-04-18T05:03:15.707Z,43.63
2018-04-18T05:05:41.711Z,50.27
2018-04-18T05:08:07.593Z,50.90
2018-04-18T05:10:34.372Z,52.80
2018-04-18T05:13:00.363Z,48.33
2018-04-18T05:15:26.236Z,48.40
2018-04-18T05:17:52.268Z,56.07
2018-04-18T05:20:18.143Z,44.63
2018-04-18T05:22:44.011Z,52.17
2018-04-18T05:25:10.028Z,54.87
2018-04-18T05:27:35.903Z,47.67
2018-04-18T05:30:01.824Z,56.03
2018-04-18T05:32:28.600Z,58.80
2018-04-18T05:34:54.473Z,55.90
2018-04-18T05:37:20.447Z,61.20
2018-04-18T05:39:46.703Z,61.43
2018-04-18T05:42:12.625Z,77.17
2018-04-18T05:44:39.566Z,66.57
2018-04-18T05:47:05.478Z,68.17
2018-04-18T05:49:31.428Z,62.07
2018-04-18T05:51:57.403Z,64.43
2018-04-18T05:54:23.443Z,68.40
2018-04-18T05:56:49.320Z,65.40
2018-04-18T05:59:15.225Z,60.60
2018-04-18T06:01:41.251Z,62.97
2018-04-18T06:04:07.252Z,58.33
2018-04-18T06:06:34.252Z,67.77
2018-04-18T06:09:00.163Z,60.67
2018-04-18T06:11:26.038Z,56.90
2018-04-18T06:13:52.136Z,54.10
2018-04-18T06:16:18.391Z,52.93
2018-04-18T06:18:44.303Z,51.87
2018-04-18T06:21:10.689Z,50.43
2018-04-18T06:23:37.165Z,52.97
2018-04-18T06:26:03.201Z,48.87
2018-04-18T06:28:29.489Z,50.47
2018-04-18T06:30:56.858Z,50.50
2018-04-18T06:33:23.195Z,47.67
2018-04-18T06:35:49.827Z,49.70
2018-04-18T06:38:17.252Z,52.50
2018-04-18T06:40:43.215Z,48.90
2018-04-18T06:43:09.228Z,43.27
2018-04-18T06:45:35.712Z,45.03
2018-04-18T06:48:01.671Z,41.63
2018-04-18T06:50:27.812Z,43.87
2018-04-18T06:52:54.225Z,44.63
2018-04-18T06:55:20.930Z,42.60
2018-04-18T06:57:47.262Z,39.53
2018-04-18T07:00:13.668Z,43.93
2018-04-18T07:02:39.989Z,41.80
2018-04-18T07:05:06.230Z,41.07
2018-04-18T07:07:32.211Z,37.23
2018-04-18T07:09:58.084Z,39.20
2018-04-18T07:12:23.948Z,41.83
2018-04-18T07:14:49.985Z,39.87
2018-04-18T07:17:16.898Z,38.97
2018-04-18T07:19:42.835Z,35.80
2018-04-18T07:22:08.870Z,33.77
2018-04-18T07:24:34.817Z,33.60
2018-04-18T07:27:00.804Z,31.13
2018-04-18T07:29:26.798Z,29.93
2018-04-18T07:31:52.747Z,33.27
2018-04-18T07:34:18.661Z,29.20
2018-04-18T07:36:46.708Z,30.80
2018-04-18T07:39:12.696Z,28.97
2018-04-18T07:41:38.574Z,28.73
2018-04-18T07:44:04.565Z,28.90
2018-04-18T07:46:30.427Z,23.33
2018-04-18T07:48:56.319Z,22.50
2018-04-18T07:51:22.287Z,25.50
2018-04-18T07:53:48.172Z,24.40
2018-04-18T07:56:14.099Z,23.50
2018-04-18T07:58:40.024Z,22.23
2018-04-18T08:01:05.897Z,22.27
2018-04-18T08:03:31.872Z,23.73
2018-04-18T08:05:57.776Z,24.97
2018-04-18T08:08:23.710Z,22.90
2018-04-18T08:10:49.593Z,22.27
2018-04-18T08:13:15.504Z,18.30
2018-04-18T08:15:41.463Z,19.73
2018-04-18T08:18:07.363Z,20.87
2018-04-18T08:20:33.320Z,21.20
2018-04-18T08:22:59.227Z,16.83
2018-04-18T08:25:25.094Z,18.97
2018-04-18T08:27:55.921Z,18.63
2018-04-18T08:30:21.775Z,18.43
2018-04-18T08:32:47.714Z,16.70
2018-04-18T08:35:13.707Z,18.77
2018-04-18T08:37:39.600Z,21.83
2018-04-18T08:40:05.539Z,17.87
2018-04-18T08:42:32.513Z,17.60
2018-04-18T08:44:58.441Z,18.57
2018-04-18T08:47:24.443Z,20.93
2018-04-18T08:49:50.361Z,18.37
2018-04-18T08:52:16.362Z,22.10
2018-04-18T08:54:42.317Z,22.67
2018-04-18T08:57:08.670Z,20.90
2018-04-18T08:59:34.532Z,23.37
2018-04-18T09:02:00.436Z,20.30
2018-04-18T09:04:26.531Z,21.27
2018-04-18T09:06:52.420Z,20.57
2018-04-18T09:09:18.331Z,22.60
2018-04-18T09:11:44.244Z,21.27
2018-04-18T09:14:11.115Z,19.30
2018-04-18T09:16:37.075Z,18.83
2018-04-18T09:19:03.013Z,22.73
2018-04-18T09:21:28.923Z,20.33
2018-04-18T09:23:54.791Z,21.00
2018-04-18T09:26:21.096Z,23.90
2018-04-18T09:28:47.059Z,21.27
2018-04-18T09:31:12.931Z,23.97
2018-04-18T09:33:38.899Z,20.67
2018-04-18T09:36:04.803Z,20.23
2018-04-18T09:38:30.680Z,20.67
2018-04-18T09:40:56.691Z,19.93
2018-04-18T09:43:22.564Z,19.57
2018-04-18T09:45:48.499Z,19.17
2018-04-18T09:48:14.416Z,19.50
2018-04-18T09:50:40.299Z,18.97
2018-04-18T09:53:06.276Z,18.87
2018-04-18T09:55:32.597Z,16.87
2018-04-18T09:57:58.514Z,19.20
2018-04-18T10:00:30.447Z,19.63
2018-04-18T10:03:02.413Z,16.07
2018-04-18T10:05:28.423Z,16.77
2018-04-18T10:07:54.284Z,18.53
2018-04-18T10:10:20.277Z,16.03
2018-04-18T10:12:46.140Z,15.03
2018-04-18T10:15:13.024Z,16.63
2018-04-18T10:17:39.048Z,17.00
2018-04-18T10:20:04.915Z,16.63
2018-04-18T10:22:30.857Z,14.93
2018-04-18T10:24:56.786Z,14.73
2018-04-18T10:27:22.678Z,15.57
2018-04-18T10:29:48.658Z,14.63
2018-04-18T10:32:14.569Z,16.00
2018-04-18T10:34:40.495Z,14.17
2018-04-18T10:37:06.427Z,13.63
2018-04-18T10:39:32.380Z,13.60
2018-04-18T10:41:58.348Z,13.63
2018-04-18T10:44:24.217Z,14.27
2018-04-18T10:46:50.192Z,13.60
2018-04-18T10:49:16.057Z,12.30
2018-04-18T10:51:41.931Z,12.67
2018-04-18T10:54:07.961Z,13.37
2018-04-18T10:56:33.863Z,16.50
2018-04-18T10:58:59.808Z,11.57
2018-04-18T11:01:25.719Z,14.43
2018-04-18T11:03:51.582Z,12.17
2018-04-18T11:06:17.539Z,12.13
2018-04-18T11:08:43.467Z,10.77
2018-04-18T11:11:09.370Z,10.97
2018-04-18T11:13:35.336Z,10.83
2018-04-18T11:16:01.246Z,11.97
2018-04-18T11:18:27.195Z,10.27
2018-04-18T11:20:53.074Z,12.43
2018-04-18T11:23:19.033Z,11.67
2018-04-18T11:25:44.944Z,14.63
2018-04-18T11:28:10.819Z,12.10
2018-04-18T11:30:37.189Z,15.03
2018-04-18T11:33:03.052Z,15.43
2018-04-18T11:35:28.970Z,12.40
2018-04-18T11:37:54.884Z,12.63
2018-04-18T11:40:20.759Z,10.37
2018-04-18T11:42:46.723Z,9.80
2018-04-18T11:45:12.656Z,12.57
2018-04-18T11:47:38.567Z,13.30
2018-04-18T11:50:04.451Z,13.37
2018-04-18T11:52:30.381Z,13.53
2018-04-18T11:54:56.348Z,13.33
2018-04-18T11:57:22.212Z,12.03
2018-04-18T11:59:48.462Z,14.20
2018-04-18T12:02:15.468Z,11.87
2018-04-18T12:04:41.330Z,10.07
2018-04-18T12:07:07.335Z,11.30
2018-04-18T12:09:33.220Z,11.60
2018-04-18T12:11:59.159Z,12.30
2018-04-18T12:14:25.066Z,12.47
2018-04-18T12:16:51.000Z,13.17
2018-04-18T12:19:16.961Z,14.33
2018-04-18T12:21:42.886Z,12.10
2018-04-18T12:24:08.795Z,12.67
2018-04-18T12:26:34.672Z,13.67
2018-04-18T12:29:00.591Z,14.63
2018-04-18T12:31:26.559Z,12.10
2018-04-18T12:33:52.439Z,12.73
2018-04-18T12:36:25.648Z,12.23
2018-04-18T12:38:51.522Z,14.17
2018-04-18T12:41:17.404Z,12.63
2018-04-18T12:43:43.742Z,14.40
2018-04-18T12:46:09.682Z,12.17
2018-04-18T12:48:35.602Z,12.57
2018-04-18T12:51:01.517Z,11.07
2018-04-18T12:53:27.411Z,11.77
2018-04-18T12:55:53.371Z,10.40
2018-04-18T12:58:19.288Z,12.37
2018-04-18T13:00:45.257Z,12.63
2018-04-18T13:03:25.523Z,14.67
2018-04-18T13:05:51.379Z,13.47
2018-04-18T13:08:17.352Z,12.77
2018-04-18T13:10:43.360Z,13.87
2018-04-18T13:13:09.309Z,14.07
2018-04-18T13:15:35.179Z,12.37
2018-04-18T13:18:02.881Z,12.67
2018-04-18T13:20:28.755Z,12.53
2018-04-18T13:22:54.656Z,13.90
2018-04-18T13:25:20.670Z,13.30
2018-04-18T13:27:46.520Z,12.23
2018-04-18T13:30:12.425Z,12.53
2018-04-18T13:32:38.729Z,12.47
2018-04-18T13:35:04.596Z,14.50
2018-04-18T13:37:30.511Z,12.07
2018-04-18T13:39:56.603Z,13.53
2018-04-18T13:42:22.487Z,13.30
2018-04-18T13:44:48.372Z,11.43
2018-04-18T13:47:14.300Z,10.50
2018-04-18T13:49:40.164Z,11.00
2018-04-18T13:52:06.023Z,10.53
2018-04-18T13:54:31.932Z,9.27
2018-04-18T13:56:57.808Z,8.77
2018-04-18T13:59:23.717Z,8.77
2018-04-18T14:01:49.935Z,11.90
2018-04-18T14:04:15.811Z,10.87
2018-04-18T14:06:41.692Z,7.60
2018-04-18T14:09:07.748Z,9.17
2018-04-18T14:11:33.653Z,9.97
2018-04-18T14:13:59.599Z,11.53
2018-04-18T14:16:25.530Z,8.60
2018-04-18T14:18:51.383Z,13.27
2018-04-18T14:21:17.361Z,11.10
2018-04-18T14:23:43.257Z,8.13
2018-04-18T14:26:09.128Z,10.03
2018-04-18T14:28:34.992Z,9.50
2018-04-18T14:31:00.921Z,9.03
2018-04-18T14:33:26.887Z,8.93
2018-04-18T14:35:52.754Z,7.80
2018-04-18T14:38:18.666Z,11.33
2018-04-18T14:40:44.536Z,8.83
2018-04-18T14:43:10.442Z,9.13
2018-04-18T14:45:36.470Z,9.40
2018-04-18T14:48:02.347Z,8.77
2018-04-18T14:50:28.213Z,9.53
2018-04-18T14:52:54.136Z,9.83
2018-04-18T14:55:20.005Z,7.43
2018-04-18T14:57:45.991Z,6.50
2018-04-18T15:00:11.909Z,8.93
2018-04-18T15:02:37.801Z,8.30
2018-04-18T15:05:03.688Z,8.90
2018-04-18T15:07:29.612Z,7.93
2018-04-18T15:09:55.555Z,9.37
2018-04-18T15:12:42.763Z,8.37
2018-04-18T15:15:08.642Z,14.70
2018-04-18T15:17:34.547Z,10.93
2018-04-18T15:20:00.539Z,8.90
2018-04-18T15:22:26.407Z,9.53
2018-04-18T15:24:52.300Z,7.03
2018-04-18T15:27:18.265Z,7.03
2018-04-18T15:29:44.124Z,8.03
2018-04-18T15:32:10.105Z,9.37
2018-04-18T15:34:36.051Z,7.13
2018-04-18T15:37:01.920Z,7.43
2018-04-18T15:39:27.792Z,9.43
2018-04-18T15:41:53.748Z,7.53
2018-04-18T15:44:19.721Z,6.37
2018-04-18T15:46:45.611Z,9.27
2018-04-18T15:49:11.523Z,7.37
2018-04-18T15:51:37.392Z,7.23
2018-04-18T15:54:03.281Z,8.40
2018-04-18T15:56:29.305Z,14.13
2018-04-18T15:58:55.175Z,7.20
2018-04-18T16:01:21.069Z,8.17
2018-04-18T16:03:46.983Z,8.60
2018-04-18T16:06:12.863Z,7.53
2018-04-18T16:08:38.840Z,7.90
2018-04-18T16:11:04.767Z,9.67
2018-04-18T16:13:30.628Z,9.30
2018-04-18T16:15:56.507Z,6.83
2018-04-18T16:18:22.460Z,7.70
2018-04-18T16:20:48.395Z,9.20
2018-04-18T16:23:14.279Z,46.67
2018-04-18T16:25:40.217Z,20.33
2018-04-18T16:28:06.087Z,31.53
2018-04-18T16:30:41.565Z,24.50
2018-04-18T16:33:07.560Z,11.47
2018-04-18T16:35:33.431Z,20.10
2018-04-18T16:37:59.364Z,14.70
2018-04-18T16:40:25.348Z,10.30
2018-04-18T16:42:51.227Z,12.90
2018-04-18T16:45:17.545Z,8.10
2018-04-18T16:47:43.412Z,7.90
2018-04-18T16:50:09.373Z,10.07
2018-04-18T16:52:35.283Z,9.33
2018-04-18T16:55:01.148Z,7.20
2018-04-18T16:57:28.119Z,6.57
2018-04-18T16:59:54.055Z,10.93
2018-04-18T17:02:19.916Z,11.53
2018-04-18T17:04:45.778Z,7.17
2018-04-18T17:07:11.719Z,10.20
2018-04-18T17:09:37.688Z,8.63
2018-04-18T17:12:03.572Z,8.07
2018-04-18T17:14:29.681Z,16.30
2018-04-18T17:16:55.546Z,7.20
2018-04-18T17:19:21.440Z,5.60
2018-04-18T17:21:47.472Z,10.67
2018-04-18T17:24:13.347Z,5.83
2018-04-18T17:26:39.228Z,6.50
2018-04-18T17:29:05.136Z,13.00
2018-04-18T17:31:31.016Z,10.87
2018-04-18T17:33:57.081Z,12.30
2018-04-18T17:36:22.957Z,18.07
2018-04-18T17:38:48.848Z,12.27
2018-04-18T17:41:14.711Z,11.03
2018-04-18T17:43:40.632Z,11.83
2018-04-18T17:46:06.628Z,12.73
2018-04-18T17:48:32.488Z,17.57
2018-04-18T17:50:58.740Z,10.27
2018-04-18T17:53:24.616Z,14.93
2018-04-18T17:55:50.491Z,12.20
2018-04-18T17:58:17.313Z,16.10
2018-04-18T18:00:43.187Z,13.80
2018-04-18T18:03:11.153Z,14.83
2018-04-18T18:05:37.088Z,13.27
2018-04-18T18:08:02.975Z,12.73
2018-04-18T18:10:28.944Z,15.60
2018-04-18T18:12:55.116Z,15.80
2018-04-18T18:15:21.066Z,10.57
2018-04-18T18:17:46.965Z,15.07
2018-04-18T18:20:12.920Z,12.23
2018-04-18T18:22:38.980Z,15.53
2018-04-18T18:25:04.876Z,14.87
2018-04-18T18:27:30.800Z,13.63
2018-04-18T18:29:56.669Z,14.60
2018-04-18T18:32:22.551Z,13.17
2018-04-18T18:34:48.549Z,15.90
2018-04-18T18:37:14.405Z,15.50
2018-04-18T18:39:40.286Z,13.47
2018-04-18T18:42:06.197Z,11.00
2018-04-18T18:44:32.088Z,10.13
2018-04-18T18:46:58.049Z,14.23
2018-04-18T18:49:24.276Z,13.03
2018-04-18T18:51:50.145Z,13.87
2018-04-18T18:54:16.049Z,11.73
2018-04-18T18:56:42.866Z,13.47
2018-04-18T18:59:08.815Z,18.53
2018-04-18T19:01:34.698Z,11.20
2018-04-18T19:04:01.675Z,11.73
2018-04-18T19:06:27.603Z,16.37
2018-04-18T19:08:53.475Z,12.37
2018-04-18T19:11:19.528Z,12.43
2018-04-18T19:13:45.401Z,14.23
2018-04-18T19:16:11.299Z,13.40
2018-04-18T19:18:37.551Z,14.60
2018-04-18T19:21:03.428Z,14.07
2018-04-18T19:23:29.434Z,14.23
2018-04-18T19:25:55.423Z,17.00
2018-04-18T19:28:21.339Z,15.63
2018-04-18T19:30:49.191Z,15.97
2018-04-18T19:33:15.103Z,15.47
2018-04-18T19:35:41.965Z,17.87
2018-04-18T19:38:08.583Z,14.87
2018-04-18T19:40:34.559Z,19.90
2018-04-18T19:43:00.438Z,16.77
2018-04-18T19:45:27.134Z,15.77
2018-04-18T19:47:53.555Z,14.07
2018-04-18T19:50:19.527Z,16.30
2018-04-18T19:52:45.395Z,14.80
2018-04-18T19:55:11.349Z,14.10
2018-04-18T19:57:37.212Z,16.43
2018-04-18T20:00:03.212Z,17.20
2018-04-18T20:02:29.136Z,19.13
2018-04-18T20:04:55.011Z,17.07
2018-04-18T20:07:20.888Z,15.67
2018-04-18T20:09:46.823Z,15.73
2018-04-18T20:12:12.771Z,16.57
2018-04-18T20:14:38.645Z,15.60
2018-04-18T20:17:04.709Z,16.30
2018-04-18T20:19:30.598Z,16.10
2018-04-18T20:21:56.467Z,13.00
2018-04-18T20:24:22.518Z,15.30
2018-04-18T20:26:48.389Z,21.40
2018-04-18T20:29:14.251Z,16.77
2018-04-18T20:31:41.127Z,14.77
2018-04-18T20:34:07.004Z,17.50
2018-04-18T20:36:34.940Z,16.70
2018-04-18T20:39:00.886Z,16.23
2018-04-18T20:41:26.789Z,15.30
2018-04-18T20:43:52.648Z,18.33
2018-04-18T20:46:18.558Z,18.53
2018-04-18T20:48:44.514Z,13.47
2018-04-18T20:51:10.399Z,15.37
2018-04-18T20:53:36.364Z,13.30
2018-04-18T20:56:02.255Z,17.33
2018-04-18T20:58:28.127Z,15.30
2018-04-18T21:00:54.165Z,17.83
2018-04-18T21:03:21.149Z,20.10
2018-04-18T21:05:47.085Z,15.67
2018-04-18T21:08:13.052Z,17.53
2018-04-18T21:10:38.929Z,15.70
2018-04-18T21:13:04.911Z,18.73
2018-04-18T21:15:32.500Z,15.13
2018-04-18T21:17:58.418Z,15.33
2018-04-18T21:20:24.306Z,15.57
2018-04-18T21:22:50.524Z,17.63
2018-04-18T21:25:16.479Z,17.13
2018-04-18T21:27:42.375Z,17.07
2018-04-18T21:30:08.281Z,15.23
2018-04-18T21:32:34.187Z,15.33
2018-04-18T21:35:00.054Z,14.63
2018-04-18T21:37:26.092Z,15.70
2018-04-18T21:39:52.011Z,17.00
2018-04-18T21:42:18.986Z,16.60
2018-04-18T21:44:44.913Z,18.67
2018-04-18T21:47:11.411Z,15.70
2018-04-18T21:49:37.639Z,15.03
2018-04-18T21:52:03.772Z,17.50
2018-04-18T21:54:29.919Z,15.47
2018-04-18T21:56:55.783Z,20.63
2018-04-18T21:59:22.079Z,15.47
2018-04-18T22:01:48.062Z,17.87
2018-04-18T22:04:14.235Z,22.17
2018-04-18T22:06:40.504Z,14.97
2018-04-18T22:09:06.893Z,19.60
2018-04-18T22:11:33.196Z,19.43
2018-04-18T22:14:00.872Z,19.80
2018-04-18T22:16:26.756Z,17.93
2018-04-18T22:18:52.611Z,16.67
2018-04-18T22:21:18.522Z,26.93
2018-04-18T22:23:44.560Z,22.07
2018-04-18T22:26:10.729Z,22.37
2018-04-18T22:28:37.470Z,21.63
2018-04-18T22:31:03.502Z,19.77
2018-04-18T22:33:29.767Z,18.60
2018-04-18T22:35:55.795Z,15.63
2018-04-18T22:38:22.145Z,19.30
2018-04-18T22:40:48.021Z,20.60
2018-04-18T22:43:15.403Z,20.70
2018-04-18T22:45:41.295Z,15.97
2018-04-18T22:48:07.167Z,22.27
2018-04-18T22:50:33.968Z,19.57
2018-04-18T22:52:59.849Z,22.83
2018-04-18T22:55:25.749Z,17.40
2018-04-18T22:57:51.700Z,18.13
2018-04-18T23:00:20.463Z,18.37
2018-04-18T23:02:46.424Z,17.43
2018-04-18T23:05:12.348Z,23.20
2018-04-18T23:07:38.252Z,20.10
2018-04-18T23:10:04.160Z,18.77
2018-04-18T23:12:30.100Z,21.60
2018-04-18T23:14:56.065Z,19.27
2018-04-18T23:17:21.951Z,23.20
2018-04-18T23:19:47.888Z,24.50
2018-04-18T23:22:13.770Z,21.20
2018-04-18T23:24:39.686Z,23.33
2018-04-18T23:27:05.720Z,22.07
2018-04-18T23:29:31.595Z,26.97
2018-04-18T23:31:57.459Z,24.70
2018-04-18T23:34:23.760Z,23.27
2018-04-18T23:36:49.648Z,27.77
2018-04-18T23:39:15.612Z,22.43
2018-04-18T23:41:41.590Z,23.60
2018-04-18T23:44:08.480Z,21.43
2018-04-18T23:46:34.347Z,22.67
2018-04-18T23:49:00.962Z,24.37
2018-04-18T23:51:26.948Z,25.23
2018-04-18T23:53:52.877Z,25.67
2018-04-18T23:56:18.803Z,26.80
2018-04-18T23:58:44.706Z,28.50
